createdAt,value
2017-06-09T00:01:59.083Z,85.80
2017-06-09T00:04:27.608Z,87.10
2017-06-09T00:06:55.337Z,87.10
2017-06-09T00:09:23.130Z,84.00
2017-06-09T00:11:50.856Z,85.00
2017-06-09T00:14:18.583Z,86.40
2017-06-09T00:16:46.356Z,87.10
2017-06-09T00:19:14.091Z,88.70
2017-06-09T00:21:41.886Z,88.40
2017-06-09T00:24:10.380Z,90.10
2017-06-09T00:26:38.113Z,90.10
2017-06-09T00:29:05.877Z,89.90
2017-06-09T00:31:33.613Z,89.20
2017-06-09T00:34:01.389Z,89.70
2017-06-09T00:36:29.123Z,89.60
2017-06-09T00:38:56.851Z,90.40
2017-06-09T00:41:24.613Z,90.90
2017-06-09T00:43:52.348Z,91.10
2017-06-09T00:46:20.123Z,91.20
2017-06-09T00:48:48.681Z,92.20
2017-06-09T00:51:16.409Z,92.20
2017-06-09T00:53:44.177Z,92.30
2017-06-09T00:56:11.931Z,92.20
2017-06-09T00:58:39.702Z,92.20
2017-06-09T01:01:07.430Z,93.00
2017-06-09T01:03:35.160Z,93.70
2017-06-09T01:06:03.690Z,94.50
2017-06-09T01:08:31.424Z,94.50
2017-06-09T01:10:59.197Z,94.80
2017-06-09T01:13:26.932Z,94.80
2017-06-09T01:15:54.665Z,94.80
2017-06-09T01:18:22.423Z,94.60
2017-06-09T01:20:50.165Z,94.70
2017-06-09T01:23:18.130Z,95.20
2017-06-09T01:25:45.865Z,95.70
2017-06-09T01:28:13.602Z,96.00
2017-06-09T01:30:41.364Z,96.30
2017-06-09T01:33:09.096Z,96.80
2017-06-09T01:35:36.865Z,97.40
2017-06-09T01:38:04.605Z,98.10
2017-06-09T01:40:32.345Z,98.70
2017-06-09T01:43:00.122Z,99.20
2017-06-09T01:45:27.910Z,99.40
2017-06-09T01:47:55.690Z,99.80
2017-06-09T01:50:24.206Z,99.90
2017-06-09T01:52:51.941Z,99.90
2017-06-09T01:55:19.703Z,99.90
2017-06-09T01:57:47.433Z,99.90
2017-06-09T02:00:15.220Z,99.90
2017-06-09T02:02:42.967Z,99.90
2017-06-09T02:05:11.463Z,99.90
2017-06-09T02:07:39.225Z,99.90
2017-06-09T02:10:06.996Z,99.90
2017-06-09T02:12:34.774Z,99.90
2017-06-09T02:15:02.512Z,99.90
2017-06-09T02:17:30.248Z,99.90
2017-06-09T02:19:58.005Z,99.90
2017-06-09T02:22:26.511Z,99.90
2017-06-09T02:24:54.446Z,99.90
2017-06-09T02:27:22.195Z,99.90
2017-06-09T02:29:49.928Z,99.90
2017-06-09T02:32:17.701Z,99.90
2017-06-09T02:34:45.432Z,99.90
2017-06-09T02:37:13.200Z,99.90
2017-06-09T02:39:40.928Z,99.90
2017-06-09T02:42:09.434Z,99.90
2017-06-09T02:44:37.196Z,99.90
2017-06-09T02:47:04.933Z,99.90
2017-06-09T02:49:32.709Z,99.90
2017-06-09T02:52:00.441Z,99.90
2017-06-09T02:54:28.937Z,99.90
2017-06-09T02:56:56.701Z,99.90
2017-06-09T02:59:24.429Z,99.90
2017-06-09T03:01:52.218Z,99.90
2017-06-09T03:04:19.962Z,99.90
2017-06-09T03:06:48.457Z,99.90
2017-06-09T03:09:16.222Z,99.90
2017-06-09T03:11:43.949Z,99.90
2017-06-09T03:14:11.717Z,99.90
2017-06-09T03:16:39.457Z,99.60
2017-06-09T03:19:07.193Z,98.50
2017-06-09T03:21:34.985Z,97.70
2017-06-09T03:24:02.716Z,97.40
2017-06-09T03:26:30.647Z,96.20
2017-06-09T03:28:59.140Z,89.30
2017-06-09T03:31:46.780Z,89.30
2017-06-09T03:34:14.542Z,85.80
2017-06-09T03:36:42.264Z,84.00
2017-06-09T03:39:10.794Z,85.20
2017-06-09T03:41:38.525Z,85.20
2017-06-09T03:44:06.289Z,86.40
2017-06-09T03:46:34.013Z,83.40
2017-06-09T03:49:01.739Z,77.80
2017-06-09T03:51:29.509Z,76.10
2017-06-09T03:53:57.244Z,75.40
2017-06-09T03:56:25.207Z,74.80
2017-06-09T03:58:52.935Z,75.70
2017-06-09T04:01:21.435Z,76.40
2017-06-09T04:03:49.208Z,76.40
2017-06-09T04:06:16.941Z,74.40
2017-06-09T04:08:45.483Z,68.40
2017-06-09T04:11:13.219Z,68.40
2017-06-09T04:13:40.947Z,61.60
2017-06-09T04:16:09.479Z,48.30
2017-06-09T04:18:37.243Z,48.20
2017-06-09T04:21:05.014Z,45.00
2017-06-09T04:23:32.755Z,40.90
2017-06-09T04:26:00.493Z,38.20
2017-06-09T04:28:28.255Z,34.70
2017-06-09T04:30:55.988Z,33.60
2017-06-09T04:33:24.518Z,32.70
2017-06-09T04:35:52.249Z,32.60
2017-06-09T04:38:19.985Z,31.70
2017-06-09T04:40:48.513Z,30.50
2017-06-09T04:43:16.248Z,30.40
2017-06-09T04:45:44.022Z,30.00
2017-06-09T04:48:11.756Z,30.70
2017-06-09T04:50:39.537Z,30.30
2017-06-09T04:53:07.300Z,30.20
2017-06-09T04:55:35.028Z,28.20
2017-06-09T04:58:03.561Z,28.30
2017-06-09T05:00:31.297Z,28.30
2017-06-09T05:02:59.040Z,30.00
2017-06-09T05:05:27.577Z,29.10
2017-06-09T05:07:55.309Z,29.40
2017-06-09T05:10:23.077Z,28.50
2017-06-09T05:12:50.808Z,27.50
2017-06-09T05:15:18.536Z,26.30
2017-06-09T05:17:46.294Z,25.60
2017-06-09T05:20:14.045Z,25.40
2017-06-09T05:22:41.849Z,24.30
2017-06-09T05:25:09.593Z,22.50
2017-06-09T05:27:37.351Z,23.70
2017-06-09T05:30:05.906Z,21.60
2017-06-09T05:32:33.651Z,21.60
2017-06-09T05:35:01.422Z,22.50
2017-06-09T05:37:29.180Z,23.70
2017-06-09T05:39:56.919Z,23.50
2017-06-09T05:42:24.682Z,21.30
2017-06-09T05:44:52.421Z,19.40
2017-06-09T05:47:20.190Z,19.30
2017-06-09T05:49:47.929Z,18.70
2017-06-09T05:52:15.668Z,18.00
2017-06-09T05:54:43.472Z,16.70
2017-06-09T05:57:11.205Z,14.80
2017-06-09T05:59:38.988Z,15.90
2017-06-09T06:02:06.864Z,16.20
2017-06-09T06:04:34.625Z,16.40
2017-06-09T06:07:02.385Z,14.90
2017-06-09T06:09:30.124Z,14.60
2017-06-09T06:11:58.660Z,15.00
2017-06-09T06:14:26.396Z,14.90
2017-06-09T06:16:54.129Z,14.30
2017-06-09T06:19:22.665Z,13.80
2017-06-09T06:21:50.398Z,13.70
2017-06-09T06:24:18.168Z,12.70
2017-06-09T06:26:45.920Z,11.90
2017-06-09T06:29:13.664Z,13.10
2017-06-09T06:31:41.428Z,14.10
2017-06-09T06:34:09.162Z,13.50
2017-06-09T06:36:37.701Z,12.80
2017-06-09T06:39:05.437Z,12.80
2017-06-09T06:41:33.172Z,13.30
2017-06-09T06:44:00.937Z,14.10
2017-06-09T06:46:28.673Z,14.10
2017-06-09T06:48:56.439Z,14.00
2017-06-09T06:51:24.174Z,13.60
2017-06-09T06:53:51.903Z,13.40
2017-06-09T06:56:19.666Z,12.80
2017-06-09T06:58:47.452Z,11.70
2017-06-09T07:01:15.233Z,11.30
2017-06-09T07:03:42.959Z,11.70
2017-06-09T07:06:10.689Z,11.20
2017-06-09T07:08:38.448Z,10.90
2017-06-09T07:11:06.945Z,11.70
2017-06-09T07:13:34.712Z,11.70
2017-06-09T07:16:02.456Z,12.00
2017-06-09T07:18:30.199Z,12.50
2017-06-09T07:21:06.403Z,13.90
2017-06-09T07:23:26.570Z,13.90
2017-06-09T07:25:54.342Z,12.90
2017-06-09T07:28:22.082Z,12.10
2017-06-09T07:30:49.811Z,12.20
2017-06-09T07:33:17.568Z,12.10
2017-06-09T07:35:45.295Z,12.10
2017-06-09T07:38:13.070Z,12.00
2017-06-09T07:40:40.805Z,12.70
2017-06-09T07:43:08.536Z,13.60
2017-06-09T07:45:36.296Z,13.10
2017-06-09T07:48:04.790Z,13.00
2017-06-09T07:50:32.552Z,12.80
2017-06-09T07:53:00.277Z,12.80
2017-06-09T07:55:28.001Z,11.70
2017-06-09T07:57:55.766Z,10.30
2017-06-09T08:00:23.492Z,11.40
2017-06-09T08:02:51.264Z,12.40
2017-06-09T08:05:18.992Z,14.10
2017-06-09T08:07:47.493Z,12.40
2017-06-09T08:10:15.253Z,12.40
2017-06-09T08:12:42.985Z,12.60
2017-06-09T08:15:10.776Z,12.20
2017-06-09T08:17:38.524Z,11.80
2017-06-09T08:20:07.048Z,12.10
2017-06-09T08:22:34.817Z,11.90
2017-06-09T08:25:02.555Z,12.50
2017-06-09T08:27:30.341Z,13.30
2017-06-09T08:29:58.075Z,12.00
2017-06-09T08:32:25.804Z,12.20
2017-06-09T08:34:54.336Z,11.70
2017-06-09T08:37:22.063Z,11.70
2017-06-09T08:39:49.836Z,11.00
2017-06-09T08:42:17.560Z,11.10
2017-06-09T08:44:46.060Z,12.30
2017-06-09T08:47:13.824Z,12.30
2017-06-09T08:49:41.583Z,11.70
2017-06-09T08:52:09.367Z,11.10
2017-06-09T08:54:37.112Z,10.50
2017-06-09T08:57:04.841Z,11.40
2017-06-09T08:59:33.363Z,11.00
2017-06-09T09:02:01.088Z,11.00
2017-06-09T09:04:29.615Z,10.50
2017-06-09T09:06:57.341Z,9.90
2017-06-09T09:09:25.077Z,9.30
2017-06-09T09:11:53.599Z,7.90
2017-06-09T09:14:21.321Z,7.80
2017-06-09T09:16:49.849Z,8.30
2017-06-09T09:19:17.577Z,8.30
2017-06-09T09:21:45.300Z,9.30
2017-06-09T09:24:13.062Z,8.90
2017-06-09T09:26:40.789Z,10.60
2017-06-09T09:29:08.580Z,11.10
2017-06-09T09:31:37.449Z,11.20
2017-06-09T09:34:05.180Z,11.60
2017-06-09T09:36:32.948Z,13.90
2017-06-09T09:39:00.689Z,14.50
2017-06-09T09:41:28.470Z,15.10
2017-06-09T09:43:56.216Z,17.10
2017-06-09T09:46:23.956Z,18.00
2017-06-09T09:48:52.485Z,19.40
2017-06-09T09:51:20.222Z,19.30
2017-06-09T09:53:47.995Z,18.70
2017-06-09T09:56:15.728Z,19.30
2017-06-09T09:58:44.232Z,20.50
2017-06-09T10:01:11.996Z,20.50
2017-06-09T10:03:39.740Z,21.20
2017-06-09T10:06:07.511Z,21.50
2017-06-09T10:08:35.259Z,20.60
2017-06-09T10:11:02.999Z,22.10
2017-06-09T10:13:31.539Z,23.20
2017-06-09T10:15:59.336Z,22.90
2017-06-09T10:18:27.926Z,24.00
2017-06-09T10:20:56.442Z,22.30
2017-06-09T10:23:25.316Z,21.70
2017-06-09T10:25:53.098Z,22.10
2017-06-09T10:28:20.832Z,23.80
2017-06-09T10:30:48.621Z,22.50
2017-06-09T10:33:16.357Z,23.30
2017-06-09T10:35:44.092Z,24.10
2017-06-09T10:38:12.625Z,23.30
2017-06-09T10:40:40.371Z,23.30
2017-06-09T10:43:08.155Z,24.10
2017-06-09T10:45:35.892Z,24.30
2017-06-09T10:48:03.627Z,24.90
2017-06-09T10:50:31.392Z,25.50
2017-06-09T10:52:59.896Z,24.00
2017-06-09T10:55:27.670Z,24.00
2017-06-09T10:57:55.410Z,24.40
2017-06-09T11:00:23.152Z,24.60
2017-06-09T11:02:51.688Z,25.30
2017-06-09T11:05:19.420Z,25.30
2017-06-09T11:07:47.209Z,25.60
2017-06-09T11:10:14.961Z,26.00
2017-06-09T11:12:42.708Z,25.80
2017-06-09T11:15:10.499Z,26.10
2017-06-09T11:17:38.266Z,26.20
2017-06-09T11:20:06.065Z,25.90
2017-06-09T11:22:34.598Z,24.30
2017-06-09T11:25:02.352Z,24.30
2017-06-09T11:27:30.170Z,25.00
2017-06-09T11:29:57.903Z,24.60
2017-06-09T11:32:25.688Z,24.20
2017-06-09T11:34:54.196Z,25.40
2017-06-09T11:37:21.957Z,25.50
2017-06-09T11:39:49.766Z,24.40
2017-06-09T11:42:17.545Z,24.30
2017-06-09T11:44:46.090Z,25.80
2017-06-09T11:47:13.848Z,25.80
2017-06-09T11:49:41.632Z,26.70
2017-06-09T11:52:09.423Z,25.00
2017-06-09T11:54:37.173Z,25.40
2017-06-09T11:57:05.743Z,25.00
2017-06-09T11:59:34.248Z,25.20
2017-06-09T12:02:01.989Z,24.60
2017-06-09T12:04:30.527Z,26.50
2017-06-09T12:06:58.308Z,26.00
2017-06-09T12:09:26.095Z,25.90
2017-06-09T12:11:54.649Z,26.20
2017-06-09T12:14:22.381Z,26.00
2017-06-09T12:16:50.148Z,26.30
2017-06-09T12:19:17.883Z,26.90
2017-06-09T12:21:45.660Z,27.50
2017-06-09T12:24:13.390Z,27.80
2017-06-09T12:26:41.138Z,28.10
2017-06-09T12:29:09.666Z,27.70
2017-06-09T12:31:37.392Z,27.80
2017-06-09T12:34:05.161Z,27.60
2017-06-09T12:36:34.024Z,27.70
2017-06-09T12:39:02.519Z,28.00
2017-06-09T12:41:30.287Z,28.00
2017-06-09T12:43:58.012Z,28.80
2017-06-09T12:46:25.784Z,28.10
2017-06-09T12:48:54.276Z,28.00
2017-06-09T12:51:22.769Z,28.80
2017-06-09T12:53:50.532Z,28.80
2017-06-09T12:56:18.264Z,28.00
2017-06-09T12:58:46.797Z,27.80
2017-06-09T13:01:14.523Z,27.80
2017-06-09T13:03:42.248Z,27.50
2017-06-09T13:06:10.008Z,27.90
2017-06-09T13:08:37.767Z,27.90
2017-06-09T13:11:05.554Z,28.60
2017-06-09T13:13:34.047Z,28.20
2017-06-09T13:16:01.777Z,28.20
2017-06-09T13:18:29.537Z,28.60
2017-06-09T13:20:57.269Z,28.60
2017-06-09T13:23:25.095Z,27.80
2017-06-09T13:25:52.826Z,28.20
2017-06-09T13:28:20.553Z,28.20
2017-06-09T13:30:48.311Z,28.40
2017-06-09T13:33:16.032Z,28.30
2017-06-09T13:35:43.806Z,27.70
2017-06-09T13:38:11.541Z,28.40
2017-06-09T13:40:40.035Z,27.80
2017-06-09T13:43:07.795Z,27.80
2017-06-09T13:45:35.524Z,27.80
2017-06-09T13:48:03.297Z,28.40
2017-06-09T13:50:31.794Z,28.60
2017-06-09T13:52:59.530Z,28.60
2017-06-09T13:55:27.288Z,28.70
2017-06-09T13:57:55.019Z,27.80
2017-06-09T14:00:22.780Z,28.30
2017-06-09T14:02:50.509Z,28.40
2017-06-09T14:05:18.242Z,28.80
2017-06-09T14:07:46.825Z,28.90
2017-06-09T14:10:15.323Z,28.60
2017-06-09T14:12:43.407Z,28.70
2017-06-09T14:15:11.132Z,29.00
2017-06-09T14:17:39.628Z,29.30
2017-06-09T14:20:07.392Z,29.20
2017-06-09T14:22:35.120Z,30.10
2017-06-09T14:25:02.889Z,28.80
2017-06-09T14:27:31.388Z,28.60
2017-06-09T14:29:59.140Z,28.20
2017-06-09T14:32:27.671Z,28.80
2017-06-09T14:34:55.417Z,28.80
2017-06-09T14:37:23.200Z,28.60
2017-06-09T14:39:50.930Z,29.20
2017-06-09T14:42:18.739Z,28.40
2017-06-09T14:44:46.495Z,28.60
2017-06-09T14:47:14.221Z,29.00
2017-06-09T14:49:41.993Z,28.80
2017-06-09T14:52:09.721Z,28.60
2017-06-09T14:54:37.455Z,28.30
2017-06-09T14:57:05.219Z,28.60
2017-06-09T14:59:33.722Z,28.90
2017-06-09T15:02:01.491Z,28.90
2017-06-09T15:04:29.237Z,28.40
2017-06-09T15:06:57.730Z,28.80
2017-06-09T15:09:25.504Z,28.80
2017-06-09T15:11:53.235Z,28.60
2017-06-09T15:14:22.824Z,28.20
2017-06-09T15:16:51.324Z,28.90
2017-06-09T15:19:19.087Z,28.90
2017-06-09T15:21:46.851Z,29.40
2017-06-09T15:24:14.581Z,29.10
2017-06-09T15:26:42.354Z,29.50
2017-06-09T15:29:10.847Z,28.50
2017-06-09T15:31:38.576Z,28.60
2017-06-09T15:34:06.340Z,28.40
2017-06-09T15:36:34.079Z,29.20
2017-06-09T15:39:01.851Z,29.10
2017-06-09T15:41:29.583Z,28.20
2017-06-09T15:43:57.313Z,28.30
2017-06-09T15:46:25.116Z,28.70
2017-06-09T15:48:52.849Z,28.50
2017-06-09T15:51:20.623Z,29.10
2017-06-09T15:53:48.349Z,29.90
2017-06-09T15:56:16.845Z,29.10
2017-06-09T15:58:44.609Z,29.10
2017-06-09T16:01:12.356Z,29.30
2017-06-09T16:03:40.124Z,29.20
2017-06-09T16:06:07.850Z,29.10
2017-06-09T16:08:35.579Z,29.30
2017-06-09T16:11:03.339Z,29.70
2017-06-09T16:13:31.068Z,29.80
2017-06-09T16:15:58.835Z,29.60
2017-06-09T16:18:26.568Z,29.70
2017-06-09T16:20:55.177Z,30.00
2017-06-09T16:23:23.093Z,29.90
2017-06-09T16:25:50.909Z,30.20
2017-06-09T16:28:18.685Z,30.50
2017-06-09T16:30:46.447Z,29.90
2017-06-09T16:33:14.176Z,30.50
2017-06-09T16:35:41.937Z,30.60
2017-06-09T16:38:09.676Z,30.90
2017-06-09T16:40:38.222Z,30.30
2017-06-09T16:43:05.958Z,30.20
2017-06-09T16:45:33.685Z,30.70
2017-06-09T16:48:02.208Z,31.10
2017-06-09T16:50:29.935Z,31.00
2017-06-09T16:52:58.475Z,30.80
2017-06-09T16:55:26.213Z,30.80
2017-06-09T16:57:53.946Z,30.80
2017-06-09T17:00:21.703Z,30.20
2017-06-09T17:02:49.438Z,30.60
2017-06-09T17:05:17.983Z,32.60
2017-06-09T17:07:45.708Z,32.50
2017-06-09T17:10:13.443Z,31.90
2017-06-09T17:12:42.005Z,31.00
2017-06-09T17:15:09.753Z,31.10
2017-06-09T17:17:38.996Z,31.60
2017-06-09T17:20:06.752Z,31.30
2017-06-09T17:22:35.257Z,31.40
2017-06-09T17:25:03.019Z,31.40
2017-06-09T17:27:30.752Z,31.40
2017-06-09T17:29:59.295Z,32.00
2017-06-09T17:32:27.057Z,32.00
2017-06-09T17:34:54.836Z,31.90
2017-06-09T17:37:22.601Z,32.10
2017-06-09T17:39:50.333Z,32.20
2017-06-09T17:42:18.112Z,32.50
2017-06-09T17:44:45.846Z,32.80
2017-06-09T17:47:13.573Z,32.80
2017-06-09T17:49:41.340Z,32.90
2017-06-09T17:52:09.070Z,33.20
2017-06-09T17:54:37.613Z,34.00
2017-06-09T17:57:05.353Z,33.80
2017-06-09T17:59:33.085Z,34.30
2017-06-09T18:02:01.616Z,34.50
2017-06-09T18:04:29.356Z,34.50
2017-06-09T18:06:57.125Z,35.30
2017-06-09T18:09:24.856Z,35.70
2017-06-09T18:11:52.591Z,36.10
2017-06-09T18:14:21.127Z,37.20
2017-06-09T18:16:48.873Z,37.10
2017-06-09T18:19:16.649Z,37.90
2017-06-09T18:21:44.554Z,38.50
2017-06-09T18:24:13.084Z,39.40
2017-06-09T18:26:40.853Z,39.40
2017-06-09T18:29:08.579Z,39.70
2017-06-09T18:31:36.365Z,39.20
2017-06-09T18:34:04.100Z,39.90
2017-06-09T18:36:31.847Z,39.50
2017-06-09T18:39:00.405Z,40.20
2017-06-09T18:41:28.133Z,40.20
2017-06-09T18:43:55.904Z,40.10
2017-06-09T18:46:23.632Z,40.40
2017-06-09T18:48:51.378Z,40.20
2017-06-09T18:51:19.904Z,41.00
2017-06-09T18:53:47.629Z,41.00
2017-06-09T18:56:15.404Z,41.50
2017-06-09T18:58:43.133Z,41.40
2017-06-09T19:01:11.631Z,41.70
2017-06-09T19:03:39.388Z,41.70
2017-06-09T19:06:07.120Z,41.70
2017-06-09T19:08:34.904Z,41.60
2017-06-09T19:11:03.405Z,42.30
2017-06-09T19:13:31.144Z,42.20
2017-06-09T19:15:59.672Z,41.90
2017-06-09T19:18:27.418Z,41.90
2017-06-09T19:20:55.211Z,42.40
2017-06-09T19:23:22.940Z,43.00
2017-06-09T19:25:50.670Z,42.60
2017-06-09T19:28:19.115Z,42.70
2017-06-09T19:30:46.844Z,43.00
2017-06-09T19:33:14.636Z,43.10
2017-06-09T19:35:42.365Z,43.30
2017-06-09T19:38:10.096Z,43.80
2017-06-09T19:40:37.852Z,44.30
2017-06-09T19:43:06.362Z,44.90
2017-06-09T19:45:34.170Z,44.90
2017-06-09T19:48:02.699Z,45.40
2017-06-09T19:50:30.436Z,45.40
2017-06-09T19:52:58.198Z,45.70
2017-06-09T19:55:25.925Z,46.10
2017-06-09T19:57:53.693Z,46.40
2017-06-09T20:00:21.424Z,46.50
2017-06-09T20:02:49.164Z,46.80
2017-06-09T20:05:16.924Z,47.30
2017-06-09T20:07:44.661Z,47.60
2017-06-09T20:10:13.198Z,49.20
2017-06-09T20:12:40.947Z,49.20
2017-06-09T20:15:08.683Z,49.30
2017-06-09T20:17:36.456Z,49.30
2017-06-09T20:20:04.198Z,49.70
2017-06-09T20:22:31.980Z,50.20
2017-06-09T20:24:59.713Z,51.00
2017-06-09T20:27:27.501Z,51.10
2017-06-09T20:29:55.282Z,50.80
2017-06-09T20:32:23.053Z,50.80
2017-06-09T20:34:50.826Z,50.40
2017-06-09T20:37:18.878Z,50.20
2017-06-09T20:39:46.865Z,50.80
2017-06-09T20:42:14.700Z,50.90
2017-06-09T20:44:42.436Z,50.90
2017-06-09T20:47:10.209Z,51.10
2017-06-09T20:49:37.944Z,50.90
2017-06-09T20:52:05.672Z,51.00
2017-06-09T20:54:33.471Z,51.50
2017-06-09T20:57:01.317Z,51.60
2017-06-09T20:59:29.101Z,52.00
2017-06-09T21:01:56.850Z,52.80
2017-06-09T21:04:24.641Z,53.60
2017-06-09T21:06:52.404Z,54.20
2017-06-09T21:09:20.140Z,54.50
2017-06-09T21:11:47.912Z,55.10
2017-06-09T21:14:15.652Z,55.70
2017-06-09T21:16:43.427Z,56.10
2017-06-09T21:19:11.205Z,57.10
2017-06-09T21:21:38.956Z,57.70
2017-06-09T21:24:06.760Z,58.30
2017-06-09T21:26:34.546Z,58.80
2017-06-09T21:29:03.048Z,61.00
2017-06-09T21:31:30.817Z,61.00
2017-06-09T21:33:58.564Z,62.20
2017-06-09T21:36:26.358Z,63.20
2017-06-09T21:38:55.369Z,64.20
2017-06-09T21:41:23.111Z,65.40
2017-06-09T21:43:50.945Z,66.20
2017-06-09T21:46:18.775Z,67.10
2017-06-09T21:48:46.589Z,68.00
2017-06-09T21:51:14.389Z,69.20
2017-06-09T21:53:42.141Z,71.10
2017-06-09T21:56:09.923Z,72.10
2017-06-09T21:58:37.674Z,73.70
2017-06-09T22:01:05.445Z,74.80
2017-06-09T22:03:33.176Z,75.80
2017-06-09T22:06:00.903Z,76.30
2017-06-09T22:08:28.671Z,77.50
2017-06-09T22:10:56.405Z,79.20
2017-06-09T22:13:24.952Z,81.60
2017-06-09T22:15:52.689Z,81.60
2017-06-09T22:18:20.425Z,82.10
2017-06-09T22:20:48.197Z,82.80
2017-06-09T22:23:15.973Z,83.50
2017-06-09T22:25:43.756Z,84.40
2017-06-09T22:28:11.487Z,84.90
2017-06-09T22:30:39.249Z,85.50
2017-06-09T22:33:07.012Z,86.70
2017-06-09T22:35:34.749Z,86.90
2017-06-09T22:38:02.521Z,87.90
2017-06-09T22:40:30.273Z,89.50
2017-06-09T22:42:58.009Z,89.10
2017-06-09T22:45:26.536Z,90.40
2017-06-09T22:47:54.264Z,90.20
2017-06-09T22:50:22.032Z,90.40
2017-06-09T22:52:49.760Z,90.30
2017-06-09T22:55:17.498Z,90.40
2017-06-09T22:57:45.256Z,90.40
2017-06-09T23:00:12.991Z,90.40
2017-06-09T23:02:40.762Z,90.60
2017-06-09T23:05:08.492Z,90.70
2017-06-09T23:07:36.216Z,90.90
2017-06-09T23:10:03.971Z,91.00
2017-06-09T23:12:31.710Z,91.20
2017-06-09T23:14:59.481Z,91.60
2017-06-09T23:17:27.214Z,91.70
2017-06-09T23:19:54.953Z,92.30
2017-06-09T23:22:23.493Z,91.30
2017-06-09T23:24:51.229Z,91.30
2017-06-09T23:27:19.008Z,90.60
2017-06-09T23:29:52.408Z,89.90
2017-06-09T23:32:20.191Z,88.50
2017-06-09T23:34:47.984Z,88.20
2017-06-09T23:37:15.712Z,87.70
2017-06-09T23:39:43.475Z,87.90
2017-06-09T23:42:11.988Z,88.80
2017-06-09T23:44:39.760Z,88.50
2017-06-09T23:47:07.498Z,88.90
2017-06-09T23:49:35.230Z,88.70
2017-06-09T23:52:02.997Z,88.30
2017-06-09T23:54:30.729Z,88.10
2017-06-09T23:56:58.503Z,88.30
2017-06-09T23:59:26.231Z,89.00
